createdAt,value
2017-12-29T00:00:04.060Z,8.10
2017-12-29T00:02:31.605Z,8.03
2017-12-29T00:04:59.138Z,7.93
2017-12-29T00:07:26.765Z,8.97
2017-12-29T00:09:55.146Z,8.30
2017-12-29T00:12:22.685Z,8.40
2017-12-29T00:14:50.233Z,8.17
2017-12-29T00:17:17.766Z,8.10
2017-12-29T00:19:45.328Z,8.90
2017-12-29T00:22:12.917Z,9.50
2017-12-29T00:24:40.465Z,7.80
2017-12-29T00:27:07.998Z,8.40
2017-12-29T00:29:35.551Z,7.53
2017-12-29T00:32:03.090Z,7.03
2017-12-29T00:34:30.633Z,7.73
2017-12-29T00:36:58.921Z,7.43
2017-12-29T00:39:26.480Z,8.40
2017-12-29T00:41:54.765Z,7.67
2017-12-29T00:44:22.690Z,7.57
2017-12-29T00:46:50.220Z,7.60
2017-12-29T00:49:17.769Z,8.73
2017-12-29T00:51:45.293Z,7.13
2017-12-29T00:54:14.695Z,7.30
2017-12-29T00:56:42.985Z,7.43
2017-12-29T00:59:10.630Z,8.73
2017-12-29T01:01:38.210Z,8.60
2017-12-29T01:04:05.762Z,8.33
2017-12-29T01:06:34.046Z,8.13
2017-12-29T01:09:02.382Z,9.00
2017-12-29T01:11:30.696Z,8.17
2017-12-29T01:13:59.009Z,8.57
2017-12-29T01:16:26.767Z,7.60
2017-12-29T01:18:54.313Z,8.03
2017-12-29T01:21:21.854Z,7.43
2017-12-29T01:23:50.190Z,8.40
2017-12-29T01:26:17.759Z,7.53
2017-12-29T01:28:45.311Z,8.23
2017-12-29T01:31:12.842Z,9.37
2017-12-29T01:33:40.410Z,8.80
2017-12-29T01:36:07.947Z,8.33
2017-12-29T01:38:35.505Z,8.70
2017-12-29T01:41:03.037Z,9.27
2017-12-29T01:43:31.358Z,9.27
2017-12-29T01:45:58.901Z,9.00
2017-12-29T01:48:26.447Z,8.87
2017-12-29T01:50:54.769Z,7.77
2017-12-29T01:53:22.305Z,8.53
2017-12-29T01:55:49.867Z,8.33
2017-12-29T01:58:17.410Z,8.37
2017-12-29T02:00:44.966Z,9.00
2017-12-29T02:03:13.261Z,9.10
2017-12-29T02:05:40.817Z,7.90
2017-12-29T02:08:08.346Z,8.47
2017-12-29T02:10:36.682Z,7.70
2017-12-29T02:13:04.224Z,7.80
2017-12-29T02:15:31.784Z,7.90
2017-12-29T02:17:59.310Z,8.50
2017-12-29T02:20:27.625Z,7.30
2017-12-29T02:22:55.158Z,8.27
2017-12-29T02:25:22.722Z,8.17
2017-12-29T02:27:50.263Z,8.57
2017-12-29T02:30:18.596Z,7.90
2017-12-29T02:32:46.130Z,7.40
2017-12-29T02:35:13.682Z,7.50
2017-12-29T02:37:41.210Z,9.40
2017-12-29T02:40:08.769Z,7.67
2017-12-29T02:42:36.314Z,9.30
2017-12-29T02:45:05.328Z,7.90
2017-12-29T02:47:32.916Z,8.87
2017-12-29T02:50:00.479Z,8.50
2017-12-29T02:52:28.013Z,9.10
2017-12-29T02:54:56.334Z,9.30
2017-12-29T02:57:23.861Z,8.67
2017-12-29T02:59:52.181Z,8.93
2017-12-29T03:02:19.706Z,8.87
2017-12-29T03:04:47.249Z,7.73
2017-12-29T03:07:15.550Z,8.00
2017-12-29T03:09:43.106Z,9.33
2017-12-29T03:12:10.645Z,7.73
2017-12-29T03:14:38.970Z,9.93
2017-12-29T03:17:06.493Z,9.33
2017-12-29T03:19:34.809Z,8.90
2017-12-29T03:22:02.335Z,9.60
2017-12-29T03:24:29.882Z,9.17
2017-12-29T03:26:58.173Z,8.57
2017-12-29T03:29:25.729Z,10.87
2017-12-29T03:31:54.014Z,9.20
2017-12-29T03:34:21.566Z,9.43
2017-12-29T03:36:49.856Z,9.60
2017-12-29T03:39:17.409Z,9.30
2017-12-29T03:41:44.943Z,9.90
2017-12-29T03:44:13.271Z,10.00
2017-12-29T03:46:40.809Z,10.80
2017-12-29T03:49:08.382Z,10.40
2017-12-29T03:51:35.914Z,8.77
2017-12-29T03:54:03.454Z,8.63
2017-12-29T03:56:31.014Z,9.50
2017-12-29T03:58:59.317Z,9.20
2017-12-29T04:01:26.874Z,9.50
2017-12-29T04:03:55.160Z,9.00
2017-12-29T04:06:22.720Z,7.93
2017-12-29T04:08:50.243Z,7.87
2017-12-29T04:11:17.806Z,9.00
2017-12-29T04:13:45.337Z,7.40
2017-12-29T04:16:12.890Z,7.93
2017-12-29T04:18:40.470Z,8.40
2017-12-29T04:21:08.022Z,7.17
2017-12-29T04:23:35.541Z,8.40
2017-12-29T04:26:03.097Z,8.37
2017-12-29T04:28:30.617Z,8.30
2017-12-29T04:30:58.167Z,8.73
2017-12-29T04:33:25.735Z,10.13
2017-12-29T04:35:54.075Z,7.17
2017-12-29T04:38:21.603Z,7.03
2017-12-29T04:40:49.188Z,7.63
2017-12-29T04:43:16.722Z,7.40
2017-12-29T04:45:44.273Z,6.60
2017-12-29T04:48:12.564Z,7.53
2017-12-29T04:50:40.120Z,6.97
2017-12-29T04:53:07.655Z,6.90
2017-12-29T04:55:35.208Z,6.03
2017-12-29T04:58:02.792Z,7.00
2017-12-29T05:00:30.310Z,6.20
2017-12-29T05:02:57.839Z,6.60
2017-12-29T05:05:25.397Z,7.10
2017-12-29T05:07:52.948Z,6.83
2017-12-29T05:10:20.518Z,6.50
2017-12-29T05:12:48.059Z,6.40
2017-12-29T05:15:16.372Z,6.10
2017-12-29T05:17:43.907Z,6.73
2017-12-29T05:20:11.458Z,5.97
2017-12-29T05:22:39.022Z,6.87
2017-12-29T05:25:06.598Z,5.37
2017-12-29T05:27:34.136Z,5.63
2017-12-29T05:30:01.778Z,5.77
2017-12-29T05:32:30.079Z,6.93
2017-12-29T05:34:57.642Z,6.28
2017-12-29T05:37:25.166Z,7.10
2017-12-29T05:39:52.726Z,6.47
2017-12-29T05:42:20.293Z,6.30
2017-12-29T05:44:48.613Z,6.80
2017-12-29T05:47:16.134Z,6.43
2017-12-29T05:49:44.430Z,6.50
2017-12-29T05:52:12.026Z,6.60
2017-12-29T05:54:39.578Z,6.67
2017-12-29T05:57:07.334Z,8.00
2017-12-29T05:59:34.862Z,9.00
2017-12-29T06:02:03.177Z,8.17
2017-12-29T06:04:30.719Z,9.10
2017-12-29T06:06:58.286Z,7.63
2017-12-29T06:09:25.837Z,7.87
2017-12-29T06:11:53.422Z,8.10
2017-12-29T06:14:20.982Z,7.30
2017-12-29T06:16:48.526Z,8.13
2017-12-29T06:19:16.081Z,7.50
2017-12-29T06:21:43.671Z,8.73
2017-12-29T06:24:11.196Z,7.63
2017-12-29T06:26:38.799Z,7.97
2017-12-29T06:29:06.317Z,6.33
2017-12-29T06:51:21.125Z,9.30
2017-12-29T06:53:48.677Z,9.67
2017-12-29T06:56:16.226Z,9.23
2017-12-29T06:58:43.786Z,8.80
2017-12-29T07:01:11.371Z,8.40
2017-12-29T07:03:38.954Z,9.23
2017-12-29T07:06:06.539Z,10.90
2017-12-29T07:08:34.174Z,10.03
2017-12-29T07:11:02.507Z,10.03
2017-12-29T07:13:30.076Z,8.97
2017-12-29T07:15:57.617Z,10.43
2017-12-29T07:18:26.109Z,9.90
2017-12-29T07:20:53.653Z,10.07
2017-12-29T07:23:21.987Z,9.97
2017-12-29T07:25:49.547Z,9.90
2017-12-29T07:28:17.906Z,9.68
2017-12-29T07:30:45.479Z,10.00
2017-12-29T07:33:13.051Z,9.60
2017-12-29T07:35:40.585Z,9.10
2017-12-29T07:38:08.152Z,9.83
2017-12-29T07:40:35.717Z,9.07
2017-12-29T07:43:03.270Z,9.33
2017-12-29T07:45:30.813Z,9.95
2017-12-29T07:47:58.351Z,9.50
2017-12-29T07:50:26.686Z,9.17
2017-12-29T07:52:54.216Z,9.37
2017-12-29T07:55:21.780Z,9.13
2017-12-29T07:57:49.326Z,9.53
2017-12-29T08:00:16.898Z,9.93
2017-12-29T08:02:44.426Z,8.83
2017-12-29T08:05:12.742Z,9.73
2017-12-29T08:07:40.269Z,9.37
2017-12-29T08:10:08.592Z,9.37
2017-12-29T08:12:36.226Z,9.93
2017-12-29T08:15:03.783Z,10.30
2017-12-29T08:17:31.368Z,9.20
2017-12-29T08:19:59.005Z,10.60
2017-12-29T08:22:26.536Z,10.23
2017-12-29T08:24:54.857Z,9.63
2017-12-29T08:27:22.387Z,12.37
2017-12-29T08:29:50.069Z,10.73
2017-12-29T08:32:17.611Z,10.30
2017-12-29T08:34:45.172Z,10.60
2017-12-29T08:37:12.713Z,9.50
2017-12-29T08:39:40.265Z,10.20
2017-12-29T08:42:07.810Z,12.23
2017-12-29T08:44:35.358Z,9.80
2017-12-29T08:47:02.979Z,10.30
2017-12-29T08:49:30.570Z,8.80
2017-12-29T08:51:58.130Z,8.93
2017-12-29T08:54:25.657Z,9.03
2017-12-29T08:56:53.216Z,9.37
2017-12-29T08:59:20.954Z,9.33
2017-12-29T09:01:48.516Z,9.50
2017-12-29T09:04:16.052Z,8.63
2017-12-29T09:06:43.615Z,9.07
2017-12-29T09:09:11.863Z,9.30
2017-12-29T09:11:39.587Z,9.20
2017-12-29T09:14:07.131Z,8.10
2017-12-29T09:16:34.687Z,7.80
2017-12-29T09:19:02.214Z,8.80
2017-12-29T09:21:29.765Z,8.73
2017-12-29T09:23:57.289Z,6.60
2017-12-29T09:26:25.613Z,7.33
2017-12-29T09:28:53.133Z,7.63
2017-12-29T09:31:20.684Z,7.00
2017-12-29T09:33:48.218Z,6.20
2017-12-29T09:36:15.786Z,6.53
2017-12-29T09:38:44.090Z,6.40
2017-12-29T09:41:11.655Z,6.47
2017-12-29T09:43:39.182Z,6.97
2017-12-29T09:46:06.720Z,9.00
2017-12-29T09:48:34.274Z,8.00
2017-12-29T09:51:01.798Z,7.90
2017-12-29T09:53:29.359Z,7.60
2017-12-29T09:55:56.883Z,6.57
2017-12-29T09:58:25.204Z,6.40
2017-12-29T10:00:52.740Z,8.80
2017-12-29T10:03:21.067Z,7.90
2017-12-29T10:05:48.606Z,6.40
2017-12-29T10:08:16.177Z,7.00
2017-12-29T10:10:44.478Z,7.80
2017-12-29T10:13:12.039Z,7.60
2017-12-29T10:15:39.585Z,6.63
2017-12-29T10:18:07.141Z,7.50
2017-12-29T10:20:34.678Z,6.83
2017-12-29T10:23:02.228Z,5.60
2017-12-29T10:25:30.526Z,5.63
2017-12-29T10:27:58.086Z,7.60
2017-12-29T10:30:25.611Z,5.40
2017-12-29T10:32:53.178Z,6.53
2017-12-29T10:35:20.709Z,5.77
2017-12-29T10:37:49.026Z,6.43
2017-12-29T10:40:16.577Z,5.73
2017-12-29T10:42:44.178Z,5.47
2017-12-29T10:45:11.710Z,6.70
2017-12-29T10:47:39.471Z,4.97
2017-12-29T10:50:07.025Z,7.53
2017-12-29T10:52:34.554Z,5.57
2017-12-29T10:55:02.873Z,6.30
2017-12-29T10:57:30.414Z,6.17
2017-12-29T10:59:57.970Z,5.10
2017-12-29T11:02:25.506Z,5.30
2017-12-29T11:05:03.818Z,6.60
2017-12-29T11:07:32.616Z,6.17
2017-12-29T11:10:00.254Z,6.80
2017-12-29T11:12:28.572Z,9.60
2017-12-29T11:14:56.223Z,8.40
2017-12-29T11:17:23.786Z,7.90
2017-12-29T11:19:51.362Z,7.87
2017-12-29T11:22:18.882Z,6.47
2017-12-29T11:24:46.426Z,6.53
2017-12-29T11:27:13.972Z,6.40
2017-12-29T11:29:41.522Z,5.63
2017-12-29T11:32:09.126Z,6.50
2017-12-29T11:34:37.612Z,7.60
2017-12-29T11:37:05.933Z,6.00
2017-12-29T11:39:33.487Z,7.27
2017-12-29T11:42:01.027Z,5.60
2017-12-29T11:44:28.578Z,6.07
2017-12-29T11:46:56.875Z,5.40
2017-12-29T11:49:24.435Z,6.27
2017-12-29T11:51:51.969Z,7.73
2017-12-29T11:54:20.270Z,6.17
2017-12-29T11:56:47.824Z,6.50
2017-12-29T11:59:15.356Z,5.93
2017-12-29T12:01:42.912Z,5.20
2017-12-29T12:04:10.451Z,6.20
2017-12-29T12:06:37.999Z,5.57
2017-12-29T12:09:06.384Z,5.80
2017-12-29T12:11:33.935Z,6.33
2017-12-29T12:14:01.475Z,6.10
2017-12-29T12:16:29.026Z,7.53
2017-12-29T12:18:56.580Z,7.10
2017-12-29T12:21:24.128Z,5.53
2017-12-29T12:23:52.430Z,5.47
2017-12-29T12:26:19.978Z,4.93
2017-12-29T12:28:47.515Z,5.20
2017-12-29T12:31:15.894Z,4.43
2017-12-29T12:33:44.190Z,5.90
2017-12-29T12:36:11.738Z,4.83
2017-12-29T12:38:40.035Z,3.80
2017-12-29T12:41:07.590Z,4.83
2017-12-29T12:43:35.114Z,4.43
2017-12-29T12:46:02.694Z,3.80
2017-12-29T12:48:31.007Z,3.90
2017-12-29T12:50:58.554Z,4.00
2017-12-29T12:53:26.138Z,4.10
2017-12-29T12:55:53.675Z,4.70
2017-12-29T12:58:21.239Z,4.47
2017-12-29T13:00:48.780Z,5.13
2017-12-29T13:03:16.330Z,4.20
2017-12-29T13:05:44.631Z,3.40
2017-12-29T13:08:12.190Z,3.63
2017-12-29T13:10:39.714Z,4.10
2017-12-29T13:13:07.271Z,3.90
2017-12-29T13:15:34.795Z,3.93
2017-12-29T13:18:02.343Z,3.83
2017-12-29T13:20:29.881Z,3.50
2017-12-29T13:22:57.425Z,4.30
2017-12-29T13:25:24.968Z,4.50
2017-12-29T13:27:52.509Z,3.70
2017-12-29T13:30:20.034Z,4.03
2017-12-29T13:32:47.591Z,4.33
2017-12-29T13:35:15.114Z,5.13
2017-12-29T13:37:43.797Z,4.80
2017-12-29T13:40:12.102Z,4.70
2017-12-29T13:42:39.649Z,3.43
2017-12-29T13:45:07.944Z,3.93
2017-12-29T13:47:35.578Z,3.70
2017-12-29T13:50:03.879Z,4.20
2017-12-29T13:52:31.431Z,3.63
2017-12-29T13:54:58.961Z,3.37
2017-12-29T13:57:26.493Z,3.73
2017-12-29T13:59:54.047Z,3.80
2017-12-29T14:02:22.366Z,3.57
2017-12-29T14:04:50.685Z,4.00
2017-12-29T14:07:18.222Z,3.53
2017-12-29T14:09:45.787Z,3.67
2017-12-29T14:12:13.326Z,3.53
2017-12-29T14:14:41.639Z,3.70
2017-12-29T14:17:09.958Z,3.50
2017-12-29T14:19:37.510Z,4.20
2017-12-29T14:22:05.039Z,3.67
2017-12-29T14:24:32.586Z,3.77
2017-12-29T14:27:00.107Z,3.63
2017-12-29T14:29:27.662Z,4.03
2017-12-29T14:31:55.183Z,3.73
2017-12-29T14:34:22.737Z,3.93
2017-12-29T14:36:50.262Z,4.10
2017-12-29T14:39:17.817Z,3.40
2017-12-29T14:41:46.118Z,4.20
2017-12-29T14:44:13.670Z,3.90
2017-12-29T14:46:41.246Z,4.00
2017-12-29T14:49:08.800Z,3.37
2017-12-29T14:51:36.334Z,3.80
2017-12-29T14:54:04.649Z,3.33
2017-12-29T14:56:32.178Z,3.60
2017-12-29T14:58:59.718Z,4.27
2017-12-29T15:01:27.285Z,4.50
2017-12-29T15:03:55.584Z,4.03
2017-12-29T15:06:23.135Z,3.90
2017-12-29T15:08:51.429Z,3.30
2017-12-29T15:11:18.981Z,3.53
2017-12-29T15:13:46.507Z,3.77
2017-12-29T15:16:14.061Z,3.63
2017-12-29T15:18:41.593Z,4.47
2017-12-29T15:21:09.142Z,4.57
2017-12-29T15:23:36.673Z,3.72
2017-12-29T15:26:04.243Z,4.30
2017-12-29T15:28:31.778Z,5.18
2017-12-29T15:30:59.355Z,4.10
2017-12-29T15:33:26.886Z,5.00
2017-12-29T15:35:55.277Z,5.60
2017-12-29T15:38:22.790Z,4.50
2017-12-29T15:40:55.770Z,5.07
2017-12-29T15:43:23.297Z,4.57
2017-12-29T15:45:50.862Z,4.73
2017-12-29T15:48:18.394Z,5.30
2017-12-29T15:50:49.149Z,4.78
2017-12-29T15:53:16.686Z,4.43
2017-12-29T15:55:45.013Z,5.72
2017-12-29T15:58:12.551Z,5.60
2017-12-29T16:00:40.114Z,6.00
2017-12-29T16:03:07.645Z,5.73
2017-12-29T16:05:35.945Z,5.60
2017-12-29T16:08:03.506Z,5.27
2017-12-29T16:10:31.041Z,5.37
2017-12-29T16:12:59.367Z,5.97
2017-12-29T16:15:26.895Z,5.67
2017-12-29T16:17:54.473Z,4.65
2017-12-29T16:20:22.003Z,4.63
2017-12-29T16:22:50.324Z,4.73
2017-12-29T16:25:17.854Z,5.10
2017-12-29T16:27:45.407Z,5.10
2017-12-29T16:30:13.701Z,4.93
2017-12-29T16:32:41.262Z,4.90
2017-12-29T16:35:08.798Z,4.80
2017-12-29T16:37:37.117Z,5.80
2017-12-29T16:40:04.659Z,6.57
2017-12-29T16:42:32.218Z,7.07
2017-12-29T16:44:59.746Z,6.60
2017-12-29T16:47:28.066Z,7.00
2017-12-29T16:49:55.617Z,8.30
2017-12-29T16:52:23.170Z,7.57
2017-12-29T16:54:50.697Z,7.50
2017-12-29T16:57:18.267Z,6.00
2017-12-29T16:59:46.643Z,5.30
2017-12-29T17:02:14.283Z,6.70
2017-12-29T17:04:42.757Z,7.40
2017-12-29T17:07:10.517Z,5.57
2017-12-29T17:09:38.135Z,5.77
2017-12-29T17:12:05.701Z,6.83
2017-12-29T17:14:33.230Z,5.33
2017-12-29T17:17:01.557Z,6.60
2017-12-29T17:19:29.108Z,7.40
2017-12-29T17:21:56.658Z,5.07
2017-12-29T17:24:24.349Z,7.90
2017-12-29T17:26:52.870Z,10.32
2017-12-29T17:29:21.270Z,7.93
2017-12-29T17:31:48.848Z,8.35
2017-12-29T17:34:16.594Z,7.63
2017-12-29T17:36:45.034Z,6.40
2017-12-29T17:39:12.925Z,8.60
2017-12-29T17:41:40.507Z,6.40
2017-12-29T17:44:08.037Z,7.10
2017-12-29T17:46:35.667Z,8.00
2017-12-29T17:49:04.010Z,6.13
2017-12-29T17:51:31.832Z,7.47
2017-12-29T17:53:59.507Z,8.73
2017-12-29T17:56:27.907Z,5.80
2017-12-29T17:58:56.300Z,7.00
2017-12-29T18:01:23.845Z,7.70
2017-12-29T18:03:52.173Z,6.93
2017-12-29T18:06:19.942Z,7.93
2017-12-29T18:08:47.496Z,7.10
2017-12-29T18:11:15.030Z,6.97
2017-12-29T18:13:42.579Z,7.73
2017-12-29T18:16:10.264Z,8.50
2017-12-29T18:18:37.938Z,7.10
2017-12-29T18:21:05.716Z,7.13
2017-12-29T18:23:34.039Z,5.30
2017-12-29T18:26:02.527Z,5.90
2017-12-29T18:28:30.259Z,6.53
2017-12-29T18:30:57.909Z,5.20
2017-12-29T18:33:25.538Z,5.03
2017-12-29T18:35:53.342Z,5.83
2017-12-29T18:38:22.356Z,5.03
2017-12-29T18:40:50.799Z,4.97
2017-12-29T18:43:18.633Z,5.43
2017-12-29T18:45:46.480Z,4.93
2017-12-29T18:48:14.427Z,5.93
2017-12-29T18:50:42.003Z,5.77
2017-12-29T18:53:09.870Z,4.80
2017-12-29T18:55:37.847Z,6.23
2017-12-29T18:58:05.550Z,5.87
2017-12-29T19:00:33.420Z,5.03
2017-12-29T19:03:01.062Z,6.12
2017-12-29T19:05:29.046Z,6.03
2017-12-29T19:07:56.685Z,5.47
2017-12-29T19:10:24.215Z,6.80
2017-12-29T19:12:53.051Z,6.37
2017-12-29T19:15:21.410Z,5.63
2017-12-29T19:17:48.998Z,7.30
2017-12-29T19:20:16.594Z,5.77
2017-12-29T19:22:44.429Z,6.97
2017-12-29T19:25:12.036Z,9.47
2017-12-29T19:27:40.330Z,7.00
2017-12-29T19:30:08.300Z,7.93
2017-12-29T19:32:36.233Z,8.87
2017-12-29T19:35:04.007Z,8.00
2017-12-29T19:37:31.542Z,8.13
2017-12-29T19:39:59.110Z,8.87
2017-12-29T19:42:26.651Z,6.87
2017-12-29T19:44:54.298Z,8.20
2017-12-29T19:47:21.837Z,8.03
2017-12-29T19:49:49.401Z,6.80
2017-12-29T19:52:16.943Z,7.10
2017-12-29T19:54:45.275Z,7.20
2017-12-29T19:57:12.826Z,7.13
2017-12-29T19:59:40.398Z,6.07
2017-12-29T20:02:07.931Z,6.63
2017-12-29T20:04:35.673Z,4.70
2017-12-29T20:07:03.209Z,6.67
2017-12-29T20:09:30.862Z,5.40
2017-12-29T20:11:58.527Z,4.90
2017-12-29T20:14:26.100Z,5.47
2017-12-29T20:16:54.401Z,5.47
2017-12-29T20:19:21.982Z,4.73
2017-12-29T20:21:49.508Z,5.90
2017-12-29T20:24:17.793Z,5.13
2017-12-29T20:26:45.355Z,4.57
2017-12-29T20:29:12.898Z,4.07
2017-12-29T20:31:41.534Z,3.80
2017-12-29T20:34:09.147Z,4.47
2017-12-29T20:36:36.702Z,4.67
2017-12-29T20:39:05.000Z,4.17
2017-12-29T20:41:32.563Z,4.30
2017-12-29T20:44:00.086Z,4.60
2017-12-29T20:46:27.650Z,4.33
2017-12-29T20:48:55.962Z,3.70
2017-12-29T20:51:23.518Z,4.20
2017-12-29T20:53:51.065Z,3.23
2017-12-29T20:56:19.387Z,3.97
2017-12-29T20:58:46.913Z,3.93
2017-12-29T21:01:14.469Z,4.37
2017-12-29T21:03:41.997Z,3.60
2017-12-29T21:06:09.550Z,3.80
2017-12-29T21:08:37.084Z,4.03
2017-12-29T21:11:04.660Z,5.07
2017-12-29T21:13:32.331Z,3.80
2017-12-29T21:16:00.072Z,4.40
2017-12-29T21:18:27.745Z,6.00
2017-12-29T21:20:55.403Z,4.00
2017-12-29T21:23:23.399Z,3.90
2017-12-29T21:25:50.957Z,5.00
2017-12-29T21:28:18.625Z,3.30
2017-12-29T21:30:47.147Z,3.60
2017-12-29T21:33:15.610Z,4.57
2017-12-29T21:35:43.175Z,3.30
2017-12-29T21:38:11.283Z,4.13
2017-12-29T21:40:39.049Z,4.67
2017-12-29T21:43:06.861Z,3.03
2017-12-29T21:45:35.203Z,4.57
2017-12-29T21:48:02.806Z,4.37
2017-12-29T21:50:31.154Z,3.47
2017-12-29T21:52:58.860Z,5.10
2017-12-29T21:55:26.398Z,4.43
2017-12-29T21:57:54.726Z,4.60
2017-12-29T22:00:22.284Z,6.20
2017-12-29T22:02:50.621Z,5.87
2017-12-29T22:05:19.015Z,5.67
2017-12-29T22:07:46.583Z,9.90
2017-12-29T22:10:14.126Z,4.60
2017-12-29T22:12:42.538Z,5.50
2017-12-29T22:15:10.078Z,9.40
2017-12-29T22:17:37.667Z,6.60
2017-12-29T22:20:05.271Z,4.37
2017-12-29T22:22:33.603Z,7.70
2017-12-29T22:25:01.140Z,4.60
2017-12-29T22:27:28.718Z,5.73
2017-12-29T22:29:56.322Z,6.00
2017-12-29T22:32:24.134Z,5.43
2017-12-29T22:34:51.789Z,4.90
2017-12-29T22:37:19.325Z,6.73
2017-12-29T22:39:47.737Z,4.90
2017-12-29T22:42:15.321Z,4.83
2017-12-29T22:44:42.879Z,5.13
2017-12-29T22:47:10.418Z,5.80
2017-12-29T22:49:37.982Z,4.67
2017-12-29T22:52:05.518Z,4.83
2017-12-29T22:54:33.094Z,3.57
2017-12-29T22:57:00.630Z,4.80
2017-12-29T22:59:28.955Z,5.13
2017-12-29T23:01:56.477Z,5.40
2017-12-29T23:04:24.033Z,5.70
2017-12-29T23:06:52.358Z,5.00
2017-12-29T23:09:20.725Z,4.80
2017-12-29T23:11:48.264Z,4.80
2017-12-29T23:14:15.839Z,4.30
2017-12-29T23:16:43.382Z,4.70
2017-12-29T23:19:10.959Z,4.53
2017-12-29T23:21:38.535Z,4.17
2017-12-29T23:24:06.119Z,4.23
2017-12-29T23:26:34.453Z,3.73
2017-12-29T23:29:02.027Z,4.10
2017-12-29T23:31:29.570Z,3.10
2017-12-29T23:33:57.175Z,5.30
2017-12-29T23:36:24.791Z,2.70
2017-12-29T23:38:52.334Z,3.50
2017-12-29T23:41:19.939Z,3.70
2017-12-29T23:43:47.499Z,3.47
2017-12-29T23:46:15.094Z,2.60
2017-12-29T23:48:43.413Z,4.10
2017-12-29T23:51:10.978Z,4.73
2017-12-29T23:53:38.518Z,3.70
2017-12-29T23:56:06.094Z,4.53
2017-12-29T23:58:33.668Z,4.20
